Terminal Aerodrome Forecast
Issued by NWS

Home | Current Version | Previous Version | Text Only | Print | Product List | Glossary Off
Versions: 1 2 3 4 5 6 7 8 9 10 11 12 13 14 15 16 17 18 19

293
FTUS43 KICT 251135
TAFHUT
TAF
KHUT 251135Z 2512/2612 33011KT P6SM -RA VCTS SCT025 BKN080CB
      TEMPO 2512/2513 VRB15KT -TSRA BKN025CB
     FM251400 07009KT P6SM SCT040 BKN090=

USA.gov is the U.S. government's official web portal to all federal, state and local government web resources and services.